sensor_id;sensor_type;location;lat;lon;timestamp;P1;durP1;ratioP1;P2;durP2;ratioP2
69034;SDS011;56091;55.756;37.412;2023-02-04T00:04:48;25.80;;;9.73;;
69034;SDS011;56091;55.756;37.412;2023-02-04T00:09:48;19.67;;;8.10;;
69034;SDS011;56091;55.756;37.412;2023-02-04T00:14:49;16.30;;;6.70;;
69034;SDS011;56091;55.756;37.412;2023-02-04T00:19:50;14.43;;;6.40;;
69034;SDS011;56091;55.756;37.412;2023-02-04T00:24:51;15.68;;;6.40;;
69034;SDS011;56091;55.756;37.412;2023-02-04T00:29:51;14.37;;;5.63;;
69034;SDS011;56091;55.756;37.412;2023-02-04T00:34:57;13.33;;;6.00;;
69034;SDS011;56091;55.756;37.412;2023-02-04T00:39:59;12.50;;;5.43;;
69034;SDS011;56091;55.756;37.412;2023-02-04T00:45:00;12.27;;;4.90;;
69034;SDS011;56091;55.756;37.412;2023-02-04T00:50:01;11.02;;;4.53;;
69034;SDS011;56091;55.756;37.412;2023-02-04T00:55:02;13.43;;;5.03;;
69034;SDS011;56091;55.756;37.412;2023-02-04T01:00:04;12.43;;;5.43;;
69034;SDS011;56091;55.756;37.412;2023-02-04T01:05:06;11.47;;;5.20;;
69034;SDS011;56091;55.756;37.412;2023-02-04T01:10:08;11.65;;;5.00;;
69034;SDS011;56091;55.756;37.412;2023-02-04T01:15:09;13.03;;;4.93;;
69034;SDS011;56091;55.756;37.412;2023-02-04T01:20:10;10.15;;;4.82;;
69034;SDS011;56091;55.756;37.412;2023-02-04T01:25:11;12.87;;;5.33;;
69034;SDS011;56091;55.756;37.412;2023-02-04T01:30:14;12.07;;;5.15;;
69034;SDS011;56091;55.756;37.412;2023-02-04T01:35:16;14.00;;;5.47;;
69034;SDS011;56091;55.756;37.412;2023-02-04T01:40:16;11.48;;;4.80;;
69034;SDS011;56091;55.756;37.412;2023-02-04T01:45:17;11.27;;;4.90;;
69034;SDS011;56091;55.756;37.412;2023-02-04T01:50:19;11.95;;;5.00;;
69034;SDS011;56091;55.756;37.412;2023-02-04T01:55:21;11.30;;;5.10;;
69034;SDS011;56091;55.756;37.412;2023-02-04T02:00:27;15.00;;;6.07;;
69034;SDS011;56091;55.756;37.412;2023-02-04T02:10:40;13.40;;;5.65;;
69034;SDS011;56091;55.756;37.412;2023-02-04T02:15:44;13.17;;;5.80;;
69034;SDS011;56091;55.756;37.412;2023-02-04T02:20:45;17.17;;;5.40;;
69034;SDS011;56091;55.756;37.412;2023-02-04T02:25:47;14.30;;;5.73;;
69034;SDS011;56091;55.756;37.412;2023-02-04T02:30:48;13.18;;;6.03;;
69034;SDS011;56091;55.756;37.412;2023-02-04T02:35:50;13.50;;;5.73;;
69034;SDS011;56091;55.756;37.412;2023-02-04T02:40:53;13.20;;;5.28;;
69034;SDS011;56091;55.756;37.412;2023-02-04T02:45:55;12.40;;;5.47;;
69034;SDS011;56091;55.756;37.412;2023-02-04T02:50:59;14.20;;;5.53;;
69034;SDS011;56091;55.756;37.412;2023-02-04T02:56:00;12.87;;;5.13;;
69034;SDS011;56091;55.756;37.412;2023-02-04T03:01:06;14.80;;;5.75;;
69034;SDS011;56091;55.756;37.412;2023-02-04T03:06:18;13.23;;;5.50;;
69034;SDS011;56091;55.756;37.412;2023-02-04T03:11:24;11.73;;;5.13;;
69034;SDS011;56091;55.756;37.412;2023-02-04T03:16:29;12.40;;;4.90;;
69034;SDS011;56091;55.756;37.412;2023-02-04T03:21:32;12.55;;;5.68;;
69034;SDS011;56091;55.756;37.412;2023-02-04T03:26:34;13.87;;;5.67;;
69034;SDS011;56091;55.756;37.412;2023-02-04T03:31:35;12.52;;;5.85;;
69034;SDS011;56091;55.756;37.412;2023-02-04T03:36:37;13.77;;;5.80;;
69034;SDS011;56091;55.756;37.412;2023-02-04T03:41:37;14.95;;;5.53;;
69034;SDS011;56091;55.756;37.412;2023-02-04T03:46:38;13.67;;;5.53;;
69034;SDS011;56091;55.756;37.412;2023-02-04T03:51:39;15.33;;;5.33;;
69034;SDS011;56091;55.756;37.412;2023-02-04T03:56:39;12.35;;;5.47;;
69034;SDS011;56091;55.756;37.412;2023-02-04T04:01:40;14.33;;;5.63;;
69034;SDS011;56091;55.756;37.412;2023-02-04T04:06:41;13.33;;;5.43;;
69034;SDS011;56091;55.756;37.412;2023-02-04T04:11:42;13.40;;;5.75;;
69034;SDS011;56091;55.756;37.412;2023-02-04T04:16:42;14.50;;;5.63;;
69034;SDS011;56091;55.756;37.412;2023-02-04T04:21:43;13.77;;;5.30;;
69034;SDS011;56091;55.756;37.412;2023-02-04T04:26:44;13.02;;;5.65;;
69034;SDS011;56091;55.756;37.412;2023-02-04T04:31:44;15.27;;;5.97;;
69034;SDS011;56091;55.756;37.412;2023-02-04T04:36:45;17.58;;;5.78;;
69034;SDS011;56091;55.756;37.412;2023-02-04T04:41:46;15.57;;;5.93;;
69034;SDS011;56091;55.756;37.412;2023-02-04T04:46:47;12.48;;;5.07;;
69034;SDS011;56091;55.756;37.412;2023-02-04T04:51:48;14.25;;;6.22;;
69034;SDS011;56091;55.756;37.412;2023-02-04T04:56:49;15.57;;;6.03;;
69034;SDS011;56091;55.756;37.412;2023-02-04T05:01:50;23.07;;;5.90;;
69034;SDS011;56091;55.756;37.412;2023-02-04T05:06:51;12.82;;;5.55;;
69034;SDS011;56091;55.756;37.412;2023-02-04T05:11:51;16.83;;;6.00;;
69034;SDS011;56091;55.756;37.412;2023-02-04T05:16:52;17.02;;;6.25;;
69034;SDS011;56091;55.756;37.412;2023-02-04T05:21:53;16.27;;;5.87;;
69034;SDS011;56091;55.756;37.412;2023-02-04T05:26:54;12.07;;;5.57;;
69034;SDS011;56091;55.756;37.412;2023-02-04T05:31:54;15.82;;;6.05;;
69034;SDS011;56091;55.756;37.412;2023-02-04T05:36:55;15.97;;;6.60;;
69034;SDS011;56091;55.756;37.412;2023-02-04T05:41:56;15.98;;;6.60;;
69034;SDS011;56091;55.756;37.412;2023-02-04T05:46:57;16.63;;;6.40;;
69034;SDS011;56091;55.756;37.412;2023-02-04T05:51:57;14.57;;;6.30;;
69034;SDS011;56091;55.756;37.412;2023-02-04T05:56:58;13.70;;;5.68;;
69034;SDS011;56091;55.756;37.412;2023-02-04T06:02:01;20.10;;;7.07;;
69034;SDS011;56091;55.756;37.412;2023-02-04T06:07:02;17.50;;;7.20;;
69034;SDS011;56091;55.756;37.412;2023-02-04T06:12:06;17.13;;;6.90;;
69034;SDS011;56091;55.756;37.412;2023-02-04T06:17:07;14.85;;;6.10;;
69034;SDS011;56091;55.756;37.412;2023-02-04T06:22:07;17.70;;;6.72;;
69034;SDS011;56091;55.756;37.412;2023-02-04T06:27:08;16.60;;;6.60;;
69034;SDS011;56091;55.756;37.412;2023-02-04T06:32:09;18.00;;;7.00;;
69034;SDS011;56091;55.756;37.412;2023-02-04T06:37:10;16.90;;;6.87;;
69034;SDS011;56091;55.756;37.412;2023-02-04T06:42:12;14.15;;;5.43;;
69034;SDS011;56091;55.756;37.412;2023-02-04T06:47:12;17.53;;;6.50;;
69034;SDS011;56091;55.756;37.412;2023-02-04T06:52:13;20.03;;;7.60;;
69034;SDS011;56091;55.756;37.412;2023-02-04T06:57:17;21.48;;;7.63;;
69034;SDS011;56091;55.756;37.412;2023-02-04T07:02:18;24.63;;;8.73;;
69034;SDS011;56091;55.756;37.412;2023-02-04T07:07:18;19.83;;;8.82;;
69034;SDS011;56091;55.756;37.412;2023-02-04T07:12:19;18.13;;;7.63;;
69034;SDS011;56091;55.756;37.412;2023-02-04T07:17:20;20.00;;;8.35;;
69034;SDS011;56091;55.756;37.412;2023-02-04T07:22:22;19.73;;;8.43;;
69034;SDS011;56091;55.756;37.412;2023-02-04T07:27:23;25.83;;;9.43;;
69034;SDS011;56091;55.756;37.412;2023-02-04T07:32:24;25.60;;;9.10;;
69034;SDS011;56091;55.756;37.412;2023-02-04T07:37:27;32.00;;;13.23;;
69034;SDS011;56091;55.756;37.412;2023-02-04T07:42:27;25.25;;;10.23;;
69034;SDS011;56091;55.756;37.412;2023-02-04T07:47:37;23.90;;;9.87;;
69034;SDS011;56091;55.756;37.412;2023-02-04T07:52:38;24.05;;;9.45;;
69034;SDS011;56091;55.756;37.412;2023-02-04T07:57:38;20.67;;;8.67;;
69034;SDS011;56091;55.756;37.412;2023-02-04T08:02:39;18.80;;;8.57;;
69034;SDS011;56091;55.756;37.412;2023-02-04T08:07:41;20.17;;;8.73;;
69034;SDS011;56091;55.756;37.412;2023-02-04T08:12:41;22.93;;;8.43;;
69034;SDS011;56091;55.756;37.412;2023-02-04T08:17:43;19.67;;;8.45;;
69034;SDS011;56091;55.756;37.412;2023-02-04T08:22:44;18.53;;;7.60;;
69034;SDS011;56091;55.756;37.412;2023-02-04T08:27:44;20.08;;;8.18;;
69034;SDS011;56091;55.756;37.412;2023-02-04T08:32:45;16.07;;;7.50;;
69034;SDS011;56091;55.756;37.412;2023-02-04T08:37:46;15.67;;;7.23;;
69034;SDS011;56091;55.756;37.412;2023-02-04T08:42:47;17.63;;;8.00;;
69034;SDS011;56091;55.756;37.412;2023-02-04T08:47:47;16.03;;;7.23;;
69034;SDS011;56091;55.756;37.412;2023-02-04T08:52:48;17.50;;;8.20;;
69034;SDS011;56091;55.756;37.412;2023-02-04T08:57:49;20.77;;;8.32;;
69034;SDS011;56091;55.756;37.412;2023-02-04T09:02:50;18.57;;;7.97;;
69034;SDS011;56091;55.756;37.412;2023-02-04T09:07:50;19.83;;;8.53;;
69034;SDS011;56091;55.756;37.412;2023-02-04T09:12:51;18.40;;;8.02;;
69034;SDS011;56091;55.756;37.412;2023-02-04T09:17:55;24.87;;;8.67;;
69034;SDS011;56091;55.756;37.412;2023-02-04T09:23:03;21.45;;;8.70;;
69034;SDS011;56091;55.756;37.412;2023-02-04T09:28:08;21.10;;;9.33;;
69034;SDS011;56091;55.756;37.412;2023-02-04T09:33:14;20.20;;;9.27;;
69034;SDS011;56091;55.756;37.412;2023-02-04T09:38:16;21.97;;;9.63;;
69034;SDS011;56091;55.756;37.412;2023-02-04T09:43:17;22.08;;;9.65;;
69034;SDS011;56091;55.756;37.412;2023-02-04T09:48:23;25.53;;;9.57;;
69034;SDS011;56091;55.756;37.412;2023-02-04T09:53:24;22.88;;;9.52;;
69034;SDS011;56091;55.756;37.412;2023-02-04T09:58:25;20.10;;;8.70;;
69034;SDS011;56091;55.756;37.412;2023-02-04T10:03:30;24.58;;;9.88;;
69034;SDS011;56091;55.756;37.412;2023-02-04T10:08:31;24.40;;;10.77;;
69034;SDS011;56091;55.756;37.412;2023-02-04T10:13:33;23.42;;;10.90;;
69034;SDS011;56091;55.756;37.412;2023-02-04T10:18:38;24.27;;;10.27;;
69034;SDS011;56091;55.756;37.412;2023-02-04T10:23:39;23.17;;;10.50;;
69034;SDS011;56091;55.756;37.412;2023-02-04T10:28:42;26.23;;;9.75;;
69034;SDS011;56091;55.756;37.412;2023-02-04T10:33:43;23.75;;;11.05;;
69034;SDS011;56091;55.756;37.412;2023-02-04T10:38:44;28.88;;;10.90;;
69034;SDS011;56091;55.756;37.412;2023-02-04T10:43:44;26.33;;;11.57;;
69034;SDS011;56091;55.756;37.412;2023-02-04T10:48:45;25.67;;;11.15;;
69034;SDS011;56091;55.756;37.412;2023-02-04T10:53:46;25.77;;;10.97;;
69034;SDS011;56091;55.756;37.412;2023-02-04T10:59:09;24.70;;;11.35;;
69034;SDS011;56091;55.756;37.412;2023-02-04T11:04:20;26.00;;;11.30;;
69034;SDS011;56091;55.756;37.412;2023-02-04T11:09:21;29.50;;;12.60;;
69034;SDS011;56091;55.756;37.412;2023-02-04T11:14:23;30.13;;;11.75;;
69034;SDS011;56091;55.756;37.412;2023-02-04T11:19:34;30.93;;;11.33;;
69034;SDS011;56091;55.756;37.412;2023-02-04T11:24:37;28.60;;;11.85;;
69034;SDS011;56091;55.756;37.412;2023-02-04T11:29:38;27.20;;;11.23;;
69034;SDS011;56091;55.756;37.412;2023-02-04T11:34:48;27.67;;;12.23;;
69034;SDS011;56091;55.756;37.412;2023-02-04T11:39:52;27.07;;;11.73;;
69034;SDS011;56091;55.756;37.412;2023-02-04T11:45:07;33.65;;;12.82;;
69034;SDS011;56091;55.756;37.412;2023-02-04T11:50:33;27.60;;;12.30;;
69034;SDS011;56091;55.756;37.412;2023-02-04T11:55:44;31.70;;;12.68;;
69034;SDS011;56091;55.756;37.412;2023-02-04T12:00:46;32.33;;;13.30;;
69034;SDS011;56091;55.756;37.412;2023-02-04T12:05:47;28.65;;;13.48;;
69034;SDS011;56091;55.756;37.412;2023-02-04T12:11:10;33.07;;;13.40;;
69034;SDS011;56091;55.756;37.412;2023-02-04T12:16:11;35.05;;;12.85;;
69034;SDS011;56091;55.756;37.412;2023-02-04T12:21:12;31.20;;;12.47;;
69034;SDS011;56091;55.756;37.412;2023-02-04T12:26:14;31.48;;;11.90;;
69034;SDS011;56091;55.756;37.412;2023-02-04T12:31:14;30.87;;;12.83;;
69034;SDS011;56091;55.756;37.412;2023-02-04T12:36:15;35.22;;;13.35;;
69034;SDS011;56091;55.756;37.412;2023-02-04T12:41:16;27.57;;;11.50;;
69034;SDS011;56091;55.756;37.412;2023-02-04T12:46:19;27.45;;;11.48;;
69034;SDS011;56091;55.756;37.412;2023-02-04T12:51:19;29.23;;;11.60;;
69034;SDS011;56091;55.756;37.412;2023-02-04T12:56:21;27.10;;;10.93;;
69034;SDS011;56091;55.756;37.412;2023-02-04T13:01:23;25.10;;;10.15;;
69034;SDS011;56091;55.756;37.412;2023-02-04T13:06:24;26.20;;;10.80;;
69034;SDS011;56091;55.756;37.412;2023-02-04T13:11:25;25.40;;;10.07;;
69034;SDS011;56091;55.756;37.412;2023-02-04T13:16:25;24.83;;;11.20;;
69034;SDS011;56091;55.756;37.412;2023-02-04T13:21:27;23.75;;;10.45;;
69034;SDS011;56091;55.756;37.412;2023-02-04T13:26:28;29.83;;;10.15;;
69034;SDS011;56091;55.756;37.412;2023-02-04T13:31:29;26.60;;;10.25;;
69034;SDS011;56091;55.756;37.412;2023-02-04T13:36:30;28.02;;;10.52;;
69034;SDS011;56091;55.756;37.412;2023-02-04T13:41:31;24.73;;;9.97;;
69034;SDS011;56091;55.756;37.412;2023-02-04T13:46:32;24.33;;;9.35;;
69034;SDS011;56091;55.756;37.412;2023-02-04T13:51:33;20.70;;;8.90;;
69034;SDS011;56091;55.756;37.412;2023-02-04T13:56:34;22.45;;;8.48;;
69034;SDS011;56091;55.756;37.412;2023-02-04T14:01:35;23.33;;;8.10;;
69034;SDS011;56091;55.756;37.412;2023-02-04T14:06:36;20.38;;;7.85;;
69034;SDS011;56091;55.756;37.412;2023-02-04T14:11:42;21.23;;;7.40;;
69034;SDS011;56091;55.756;37.412;2023-02-04T14:16:43;23.88;;;9.18;;
69034;SDS011;56091;55.756;37.412;2023-02-04T14:21:44;24.10;;;9.47;;
69034;SDS011;56091;55.756;37.412;2023-02-04T14:26:45;26.97;;;10.33;;
69034;SDS011;56091;55.756;37.412;2023-02-04T14:31:47;23.00;;;9.55;;
69034;SDS011;56091;55.756;37.412;2023-02-04T14:36:47;29.17;;;10.20;;
69034;SDS011;56091;55.756;37.412;2023-02-04T14:41:48;24.08;;;9.25;;
69034;SDS011;56091;55.756;37.412;2023-02-04T14:46:50;23.60;;;9.50;;
69034;SDS011;56091;55.756;37.412;2023-02-04T14:51:51;23.67;;;8.97;;
69034;SDS011;56091;55.756;37.412;2023-02-04T14:56:51;22.05;;;8.90;;
69034;SDS011;56091;55.756;37.412;2023-02-04T15:01:56;22.23;;;8.23;;
69034;SDS011;56091;55.756;37.412;2023-02-04T15:07:00;18.75;;;7.80;;
69034;SDS011;56091;55.756;37.412;2023-02-04T15:12:02;23.43;;;8.70;;
69034;SDS011;56091;55.756;37.412;2023-02-04T15:17:03;21.75;;;7.95;;
69034;SDS011;56091;55.756;37.412;2023-02-04T15:22:04;21.10;;;7.80;;
69034;SDS011;56091;55.756;37.412;2023-02-04T15:27:05;21.70;;;8.47;;
69034;SDS011;56091;55.756;37.412;2023-02-04T15:32:06;25.73;;;9.68;;
69034;SDS011;56091;55.756;37.412;2023-02-04T15:37:09;27.70;;;9.83;;
69034;SDS011;56091;55.756;37.412;2023-02-04T15:42:17;22.00;;;10.30;;
69034;SDS011;56091;55.756;37.412;2023-02-04T15:47:17;23.23;;;9.77;;
69034;SDS011;56091;55.756;37.412;2023-02-04T15:52:19;23.92;;;9.23;;
69034;SDS011;56091;55.756;37.412;2023-02-04T15:57:20;27.33;;;10.07;;
69034;SDS011;56091;55.756;37.412;2023-02-04T16:02:21;25.83;;;9.85;;
69034;SDS011;56091;55.756;37.412;2023-02-04T16:07:21;24.52;;;9.55;;
69034;SDS011;56091;55.756;37.412;2023-02-04T16:12:22;21.77;;;9.37;;
69034;SDS011;56091;55.756;37.412;2023-02-04T16:17:23;23.98;;;10.07;;
69034;SDS011;56091;55.756;37.412;2023-02-04T16:22:24;21.37;;;8.73;;
69034;SDS011;56091;55.756;37.412;2023-02-04T16:27:25;22.75;;;9.55;;
69034;SDS011;56091;55.756;37.412;2023-02-04T16:32:26;21.20;;;8.67;;
69034;SDS011;56091;55.756;37.412;2023-02-04T16:37:27;23.13;;;9.63;;
69034;SDS011;56091;55.756;37.412;2023-02-04T16:42:30;21.60;;;9.17;;
69034;SDS011;56091;55.756;37.412;2023-02-04T16:47:31;23.63;;;9.13;;
69034;SDS011;56091;55.756;37.412;2023-02-04T16:52:34;23.83;;;10.13;;
69034;SDS011;56091;55.756;37.412;2023-02-04T16:57:35;23.97;;;9.30;;
69034;SDS011;56091;55.756;37.412;2023-02-04T17:02:36;23.25;;;9.23;;
69034;SDS011;56091;55.756;37.412;2023-02-04T17:07:37;22.50;;;8.97;;
69034;SDS011;56091;55.756;37.412;2023-02-04T17:12:37;27.83;;;10.05;;
69034;SDS011;56091;55.756;37.412;2023-02-04T17:17:38;21.27;;;8.75;;
69034;SDS011;56091;55.756;37.412;2023-02-04T17:22:39;24.43;;;9.00;;
69034;SDS011;56091;55.756;37.412;2023-02-04T17:27:39;25.03;;;9.63;;
69034;SDS011;56091;55.756;37.412;2023-02-04T17:32:40;25.55;;;9.70;;
69034;SDS011;56091;55.756;37.412;2023-02-04T17:37:41;21.17;;;8.53;;
69034;SDS011;56091;55.756;37.412;2023-02-04T17:42:42;20.33;;;8.35;;
69034;SDS011;56091;55.756;37.412;2023-02-04T17:47:43;19.57;;;7.90;;
69034;SDS011;56091;55.756;37.412;2023-02-04T17:52:44;24.80;;;8.60;;
69034;SDS011;56091;55.756;37.412;2023-02-04T17:57:45;23.03;;;8.30;;
69034;SDS011;56091;55.756;37.412;2023-02-04T18:02:47;22.27;;;8.67;;
69034;SDS011;56091;55.756;37.412;2023-02-04T18:08:03;23.25;;;8.77;;
69034;SDS011;56091;55.756;37.412;2023-02-04T18:18:39;23.92;;;9.18;;
69034;SDS011;56091;55.756;37.412;2023-02-04T18:23:40;25.67;;;8.77;;
69034;SDS011;56091;55.756;37.412;2023-02-04T18:28:42;19.13;;;8.80;;
69034;SDS011;56091;55.756;37.412;2023-02-04T18:33:45;19.27;;;7.87;;
69034;SDS011;56091;55.756;37.412;2023-02-04T18:38:46;18.30;;;7.55;;
69034;SDS011;56091;55.756;37.412;2023-02-04T18:43:48;20.87;;;7.53;;
69034;SDS011;56091;55.756;37.412;2023-02-04T18:54:27;18.03;;;7.80;;
69034;SDS011;56091;55.756;37.412;2023-02-04T18:59:39;20.70;;;7.78;;
69034;SDS011;56091;55.756;37.412;2023-02-04T19:04:41;20.83;;;7.50;;
69034;SDS011;56091;55.756;37.412;2023-02-04T19:09:44;22.85;;;8.48;;
69034;SDS011;56091;55.756;37.412;2023-02-04T19:14:46;20.67;;;7.93;;
69034;SDS011;56091;55.756;37.412;2023-02-04T19:20:07;18.45;;;7.80;;
69034;SDS011;56091;55.756;37.412;2023-02-04T19:30:50;20.65;;;7.93;;
69034;SDS011;56091;55.756;37.412;2023-02-04T19:35:55;18.33;;;7.57;;
69034;SDS011;56091;55.756;37.412;2023-02-04T19:40:59;19.63;;;7.72;;
69034;SDS011;56091;55.756;37.412;2023-02-04T19:46:00;21.40;;;7.70;;
69034;SDS011;56091;55.756;37.412;2023-02-04T20:01:36;18.75;;;7.15;;
69034;SDS011;56091;55.756;37.412;2023-02-04T20:06:38;20.57;;;7.60;;
69034;SDS011;56091;55.756;37.412;2023-02-04T20:12:02;17.00;;;7.00;;
69034;SDS011;56091;55.756;37.412;2023-02-04T20:17:17;17.70;;;7.50;;
69034;SDS011;56091;55.756;37.412;2023-02-04T20:27:22;20.30;;;7.77;;
69034;SDS011;56091;55.756;37.412;2023-02-04T20:32:24;19.90;;;7.30;;
69034;SDS011;56091;55.756;37.412;2023-02-04T20:37:26;15.40;;;7.13;;
69034;SDS011;56091;55.756;37.412;2023-02-04T20:47:32;19.90;;;7.00;;
69034;SDS011;56091;55.756;37.412;2023-02-04T20:57:45;16.17;;;6.80;;
69034;SDS011;56091;55.756;37.412;2023-02-04T21:02:46;17.03;;;6.73;;
69034;SDS011;56091;55.756;37.412;2023-02-04T21:07:46;17.85;;;7.25;;
69034;SDS011;56091;55.756;37.412;2023-02-04T21:12:47;15.27;;;6.57;;
69034;SDS011;56091;55.756;37.412;2023-02-04T21:17:48;16.02;;;5.80;;
69034;SDS011;56091;55.756;37.412;2023-02-04T21:22:49;15.93;;;6.67;;
69034;SDS011;56091;55.756;37.412;2023-02-04T21:27:50;18.52;;;6.97;;
69034;SDS011;56091;55.756;37.412;2023-02-04T21:32:51;16.40;;;6.27;;
69034;SDS011;56091;55.756;37.412;2023-02-04T21:37:52;14.83;;;6.23;;
69034;SDS011;56091;55.756;37.412;2023-02-04T21:42:54;14.07;;;6.40;;
69034;SDS011;56091;55.756;37.412;2023-02-04T21:47:55;14.63;;;5.93;;
69034;SDS011;56091;55.756;37.412;2023-02-04T21:52:56;16.85;;;6.60;;
69034;SDS011;56091;55.756;37.412;2023-02-04T21:57:58;15.70;;;6.43;;
69034;SDS011;56091;55.756;37.412;2023-02-04T22:02:59;16.10;;;6.47;;
69034;SDS011;56091;55.756;37.412;2023-02-04T22:08:00;16.33;;;6.63;;
69034;SDS011;56091;55.756;37.412;2023-02-04T22:13:01;16.30;;;6.05;;
69034;SDS011;56091;55.756;37.412;2023-02-04T22:18:26;15.90;;;6.00;;
69034;SDS011;56091;55.756;37.412;2023-02-04T22:23:27;18.10;;;6.22;;
69034;SDS011;56091;55.756;37.412;2023-02-04T22:28:28;14.98;;;5.90;;
69034;SDS011;56091;55.756;37.412;2023-02-04T22:33:29;15.83;;;6.33;;
69034;SDS011;56091;55.756;37.412;2023-02-04T22:38:30;16.55;;;6.22;;
69034;SDS011;56091;55.756;37.412;2023-02-04T22:43:30;12.83;;;5.70;;
69034;SDS011;56091;55.756;37.412;2023-02-04T22:48:31;13.37;;;6.07;;
69034;SDS011;56091;55.756;37.412;2023-02-04T22:53:32;16.13;;;6.30;;
69034;SDS011;56091;55.756;37.412;2023-02-04T22:58:33;14.20;;;5.93;;
69034;SDS011;56091;55.756;37.412;2023-02-04T23:03:36;14.13;;;5.93;;
69034;SDS011;56091;55.756;37.412;2023-02-04T23:08:37;16.13;;;6.00;;
69034;SDS011;56091;55.756;37.412;2023-02-04T23:13:38;16.58;;;6.22;;
69034;SDS011;56091;55.756;37.412;2023-02-04T23:18:41;14.63;;;5.90;;
69034;SDS011;56091;55.756;37.412;2023-02-04T23:23:42;15.33;;;5.63;;
69034;SDS011;56091;55.756;37.412;2023-02-04T23:28:43;16.50;;;6.00;;
69034;SDS011;56091;55.756;37.412;2023-02-04T23:33:43;14.20;;;5.83;;
69034;SDS011;56091;55.756;37.412;2023-02-04T23:38:44;14.40;;;5.80;;
69034;SDS011;56091;55.756;37.412;2023-02-04T23:43:45;14.20;;;5.67;;
69034;SDS011;56091;55.756;37.412;2023-02-04T23:48:46;14.27;;;6.43;;
69034;SDS011;56091;55.756;37.412;2023-02-04T23:53:46;16.40;;;6.63;;
69034;SDS011;56091;55.756;37.412;2023-02-04T23:58:47;14.13;;;5.83;;
